Appleton, Maine
Current Conditions -  °F | °C
As of 9:35 AM on Monday 20 Oct 2014 (Local Time) from KRKD Reporting Station
Clear Clear  
Wind Chill: 36°   Ceiling: Unl
Heat Index: 43°   Visibility: 10mi
Dew Point: 25°   Wind: 14mph
Humidity: 49%   Direction: 260°W
Pressure: 29.96"   Gusts: NA
Location:  44.2596°N, 69.2573°W
Report Text: KRKD 201335Z AUTO 26012KT 10SM CLR 06/M04 A2996 RMK AO1
Loading
Personal Weather Stations






























Interactive Weather Map New forecast layout! Learn more

10-Day Weather Forecast

Advertisements
Track Severe Weather on mobile